sensor_id;sensor_type;location;lat;lon;timestamp;pressure;altitude;pressure_sealevel;temperature;humidity
60479;BME280;46321;48.398;11.754;2022-11-15T00:01:43;96559.38;;;2.86;85.19
60479;BME280;46321;48.398;11.754;2022-11-15T00:04:09;96557.69;;;2.85;85.06
60479;BME280;46321;48.398;11.754;2022-11-15T00:06:35;96560.69;;;2.81;84.37
60479;BME280;46321;48.398;11.754;2022-11-15T00:09:01;96563.16;;;2.82;84.25
60479;BME280;46321;48.398;11.754;2022-11-15T00:11:26;96558.06;;;2.81;84.27
60479;BME280;46321;48.398;11.754;2022-11-15T00:13:56;96551.66;;;2.73;84.07
60479;BME280;46321;48.398;11.754;2022-11-15T00:16:21;96552.63;;;2.72;84.08
60479;BME280;46321;48.398;11.754;2022-11-15T00:18:47;96561.41;;;2.71;84.36
60479;BME280;46321;48.398;11.754;2022-11-15T00:21:13;96550.84;;;2.73;84.15
60479;BME280;46321;48.398;11.754;2022-11-15T00:23:39;96554.69;;;2.69;84.09
60479;BME280;46321;48.398;11.754;2022-11-15T00:26:05;96554.19;;;2.63;84.42
60479;BME280;46321;48.398;11.754;2022-11-15T00:28:30;96549.22;;;2.93;83.08
60479;BME280;46321;48.398;11.754;2022-11-15T00:31:03;96550.59;;;2.76;83.97
60479;BME280;46321;48.398;11.754;2022-11-15T00:33:29;96545.72;;;2.71;84.62
60479;BME280;46321;48.398;11.754;2022-11-15T00:36:08;96544.59;;;2.64;84.86
60479;BME280;46321;48.398;11.754;2022-11-15T00:38:35;96543.63;;;2.65;84.54
60479;BME280;46321;48.398;11.754;2022-11-15T00:41:04;96546.50;;;2.62;84.19
60479;BME280;46321;48.398;11.754;2022-11-15T00:43:30;96542.44;;;2.58;84.12
60479;BME280;46321;48.398;11.754;2022-11-15T00:45:56;96534.59;;;2.58;84.54
60479;BME280;46321;48.398;11.754;2022-11-15T00:48:21;96534.88;;;2.55;84.45
60479;BME280;46321;48.398;11.754;2022-11-15T00:50:47;96541.50;;;2.59;84.09
60479;BME280;46321;48.398;11.754;2022-11-15T00:53:12;96539.97;;;2.56;83.96
60479;BME280;46321;48.398;11.754;2022-11-15T00:55:38;96529.88;;;2.51;84.20
60479;BME280;46321;48.398;11.754;2022-11-15T00:58:03;96531.66;;;2.51;84.17
60479;BME280;46321;48.398;11.754;2022-11-15T01:00:28;96528.47;;;2.47;84.14
60479;BME280;46321;48.398;11.754;2022-11-15T01:02:54;96520.75;;;2.46;84.66
60479;BME280;46321;48.398;11.754;2022-11-15T01:05:19;96526.81;;;2.46;84.24
60479;BME280;46321;48.398;11.754;2022-11-15T01:07:45;96523.75;;;2.41;84.09
60479;BME280;46321;48.398;11.754;2022-11-15T01:10:10;96518.50;;;2.41;83.62
60479;BME280;46321;48.398;11.754;2022-11-15T01:12:36;96514.22;;;2.40;83.51
60479;BME280;46321;48.398;11.754;2022-11-15T01:15:01;96512.22;;;2.44;83.32
60479;BME280;46321;48.398;11.754;2022-11-15T01:17:26;96504.88;;;2.37;83.58
60479;BME280;46321;48.398;11.754;2022-11-15T01:19:52;96506.53;;;2.38;83.55
60479;BME280;46321;48.398;11.754;2022-11-15T01:22:17;96506.66;;;2.37;83.19
60479;BME280;46321;48.398;11.754;2022-11-15T01:24:42;96505.25;;;2.33;83.42
60479;BME280;46321;48.398;11.754;2022-11-15T01:27:08;96511.66;;;2.28;83.53
60479;BME280;46321;48.398;11.754;2022-11-15T01:29:33;96503.09;;;2.26;83.85
60479;BME280;46321;48.398;11.754;2022-11-15T01:31:58;96504.19;;;2.24;83.66
60479;BME280;46321;48.398;11.754;2022-11-15T01:34:24;96492.91;;;2.23;83.93
60479;BME280;46321;48.398;11.754;2022-11-15T01:36:49;96486.97;;;2.21;83.74
60479;BME280;46321;48.398;11.754;2022-11-15T01:39:14;96487.91;;;2.20;84.05
60479;BME280;46321;48.398;11.754;2022-11-15T01:41:40;96488.97;;;2.17;83.96
60479;BME280;46321;48.398;11.754;2022-11-15T01:46:56;96477.72;;;2.17;84.08
60479;BME280;46321;48.398;11.754;2022-11-15T01:49:23;96479.09;;;2.44;82.40
60479;BME280;46321;48.398;11.754;2022-11-15T01:51:48;96481.78;;;2.10;83.88
60479;BME280;46321;48.398;11.754;2022-11-15T01:54:16;96475.88;;;1.96;84.86
60479;BME280;46321;48.398;11.754;2022-11-15T01:56:50;96478.84;;;1.91;84.89
60479;BME280;46321;48.398;11.754;2022-11-15T01:59:18;96470.06;;;1.92;85.21
60479;BME280;46321;48.398;11.754;2022-11-15T02:01:43;96469.94;;;1.94;85.19
60479;BME280;46321;48.398;11.754;2022-11-15T02:04:15;96472.69;;;1.92;85.54
60479;BME280;46321;48.398;11.754;2022-11-15T02:06:43;96467.81;;;1.88;85.19
60479;BME280;46321;48.398;11.754;2022-11-15T02:09:09;96468.88;;;1.85;85.27
60479;BME280;46321;48.398;11.754;2022-11-15T02:11:35;96462.13;;;1.82;85.45
60479;BME280;46321;48.398;11.754;2022-11-15T02:14:02;96463.78;;;1.83;85.78
60479;BME280;46321;48.398;11.754;2022-11-15T02:16:35;96456.66;;;1.86;85.45
60479;BME280;46321;48.398;11.754;2022-11-15T02:32:54;96429.59;;;1.75;86.82
60479;BME280;46321;48.398;11.754;2022-11-15T02:37:57;96435.09;;;1.72;88.17
60479;BME280;46321;48.398;11.754;2022-11-15T02:40:49;96434.38;;;1.70;87.97
60479;BME280;46321;48.398;11.754;2022-11-15T02:43:23;96434.38;;;1.70;88.02
60479;BME280;46321;48.398;11.754;2022-11-15T02:46:22;96435.19;;;1.70;88.04
60479;BME280;46321;48.398;11.754;2022-11-15T02:49:10;96429.38;;;1.67;87.76
60479;BME280;46321;48.398;11.754;2022-11-15T02:51:36;96425.59;;;1.71;87.54
60479;BME280;46321;48.398;11.754;2022-11-15T02:54:01;96417.63;;;1.73;87.45
60479;BME280;46321;48.398;11.754;2022-11-15T02:56:27;96422.75;;;1.74;87.57
60479;BME280;46321;48.398;11.754;2022-11-15T02:59:07;96423.94;;;1.70;87.15
60479;BME280;46321;48.398;11.754;2022-11-15T03:01:51;96415.63;;;1.65;87.32
60479;BME280;46321;48.398;11.754;2022-11-15T03:04:44;96411.13;;;1.67;86.94
60479;BME280;46321;48.398;11.754;2022-11-15T03:07:29;96409.72;;;1.63;86.91
60479;BME280;46321;48.398;11.754;2022-11-15T03:10:12;96410.66;;;1.62;87.25
60479;BME280;46321;48.398;11.754;2022-11-15T03:12:49;96406.97;;;1.64;87.49
60479;BME280;46321;48.398;11.754;2022-11-15T03:15:37;96417.31;;;1.66;87.62
60479;BME280;46321;48.398;11.754;2022-11-15T03:18:33;96407.09;;;1.63;87.69
60479;BME280;46321;48.398;11.754;2022-11-15T03:21:04;96412.44;;;1.61;87.91
60479;BME280;46321;48.398;11.754;2022-11-15T03:23:31;96407.59;;;1.56;87.52
60479;BME280;46321;48.398;11.754;2022-11-15T03:25:59;96409.22;;;1.57;87.47
60479;BME280;46321;48.398;11.754;2022-11-15T03:28:32;96394.53;;;1.56;87.62
60479;BME280;46321;48.398;11.754;2022-11-15T03:31:00;96405.69;;;1.58;88.06
60479;BME280;46321;48.398;11.754;2022-11-15T03:33:47;96401.41;;;1.57;87.68
60479;BME280;46321;48.398;11.754;2022-11-15T03:36:14;96392.41;;;1.50;87.13
60479;BME280;46321;48.398;11.754;2022-11-15T03:38:41;96397.63;;;1.50;87.31
60479;BME280;46321;48.398;11.754;2022-11-15T03:41:19;96398.56;;;1.49;87.25
60479;BME280;46321;48.398;11.754;2022-11-15T03:43:54;96395.13;;;1.48;86.94
60479;BME280;46321;48.398;11.754;2022-11-15T03:46:32;96399.16;;;1.53;86.92
60479;BME280;46321;48.398;11.754;2022-11-15T03:49:24;96399.84;;;1.55;86.63
60479;BME280;46321;48.398;11.754;2022-11-15T03:51:47;96399.28;;;1.51;86.10
60479;BME280;46321;48.398;11.754;2022-11-15T03:54:13;96396.91;;;1.48;86.44
60479;BME280;46321;48.398;11.754;2022-11-15T03:56:38;96400.34;;;1.48;86.37
60479;BME280;46321;48.398;11.754;2022-11-15T03:59:04;96397.63;;;1.50;86.17
60479;BME280;46321;48.398;11.754;2022-11-15T04:01:29;96390.63;;;1.51;86.33
60479;BME280;46321;48.398;11.754;2022-11-15T04:03:54;96394.69;;;1.43;86.54
60479;BME280;46321;48.398;11.754;2022-11-15T04:06:20;96389.00;;;1.38;86.44
60479;BME280;46321;48.398;11.754;2022-11-15T04:08:45;96391.00;;;1.34;86.39
60479;BME280;46321;48.398;11.754;2022-11-15T04:11:10;96391.25;;;1.31;86.24
60479;BME280;46321;48.398;11.754;2022-11-15T04:13:35;96389.22;;;1.35;86.52
60479;BME280;46321;48.398;11.754;2022-11-15T04:16:01;96373.69;;;1.33;86.54
60479;BME280;46321;48.398;11.754;2022-11-15T04:18:26;96375.59;;;1.31;86.85
60479;BME280;46321;48.398;11.754;2022-11-15T04:20:51;96376.16;;;1.35;86.52
60479;BME280;46321;48.398;11.754;2022-11-15T04:23:35;96372.00;;;1.32;86.57
60479;BME280;46321;48.398;11.754;2022-11-15T04:26:21;96376.66;;;1.29;86.19
60479;BME280;46321;48.398;11.754;2022-11-15T04:28:47;96370.59;;;1.28;86.38
60479;BME280;46321;48.398;11.754;2022-11-15T04:31:31;96375.00;;;1.28;86.46
60479;BME280;46321;48.398;11.754;2022-11-15T04:33:56;96370.25;;;1.21;86.25
60479;BME280;46321;48.398;11.754;2022-11-15T04:36:22;96363.97;;;1.24;86.63
60479;BME280;46321;48.398;11.754;2022-11-15T04:39:06;96360.53;;;1.23;86.48
60479;BME280;46321;48.398;11.754;2022-11-15T04:41:31;96366.00;;;1.20;86.46
60479;BME280;46321;48.398;11.754;2022-11-15T04:43:57;96352.47;;;1.15;86.94
60479;BME280;46321;48.398;11.754;2022-11-15T04:46:23;96351.78;;;1.13;87.07
60479;BME280;46321;48.398;11.754;2022-11-15T04:48:49;96343.81;;;1.14;87.13
60479;BME280;46321;48.398;11.754;2022-11-15T04:51:15;96335.78;;;1.18;87.06
60479;BME280;46321;48.398;11.754;2022-11-15T04:53:40;96336.69;;;1.17;86.93
60479;BME280;46321;48.398;11.754;2022-11-15T04:56:05;96349.88;;;1.15;87.19
60479;BME280;46321;48.398;11.754;2022-11-15T04:58:31;96346.69;;;1.11;86.94
60479;BME280;46321;48.398;11.754;2022-11-15T05:00:56;96344.31;;;1.08;86.90
60479;BME280;46321;48.398;11.754;2022-11-15T05:03:21;96345.13;;;1.09;87.04
60479;BME280;46321;48.398;11.754;2022-11-15T05:06:05;96344.78;;;1.02;86.81
60479;BME280;46321;48.398;11.754;2022-11-15T05:08:31;96346.69;;;1.00;86.83
60479;BME280;46321;48.398;11.754;2022-11-15T05:10:56;96351.91;;;1.00;86.49
60479;BME280;46321;48.398;11.754;2022-11-15T05:13:22;96344.06;;;1.00;86.38
60479;BME280;46321;48.398;11.754;2022-11-15T05:15:47;96357.94;;;1.00;86.34
60479;BME280;46321;48.398;11.754;2022-11-15T05:18:12;96352.72;;;1.00;86.73
60479;BME280;46321;48.398;11.754;2022-11-15T05:20:38;96355.22;;;1.02;87.11
60479;BME280;46321;48.398;11.754;2022-11-15T05:23:03;96352.03;;;0.98;86.83
60479;BME280;46321;48.398;11.754;2022-11-15T05:25:28;96348.44;;;0.99;87.41
60479;BME280;46321;48.398;11.754;2022-11-15T05:27:54;96352.38;;;0.94;87.80
60479;BME280;46321;48.398;11.754;2022-11-15T05:30:19;96343.84;;;0.91;87.71
60479;BME280;46321;48.398;11.754;2022-11-15T05:32:44;96338.63;;;0.91;88.18
60479;BME280;46321;48.398;11.754;2022-11-15T05:35:15;96339.34;;;0.94;87.91
60479;BME280;46321;48.398;11.754;2022-11-15T05:37:43;96333.28;;;0.93;88.18
60479;BME280;46321;48.398;11.754;2022-11-15T05:40:09;96334.59;;;0.87;88.85
60479;BME280;46321;48.398;11.754;2022-11-15T05:42:34;96337.44;;;0.84;88.64
60479;BME280;46321;48.398;11.754;2022-11-15T05:45:01;96332.09;;;0.86;88.57
60479;BME280;46321;48.398;11.754;2022-11-15T05:47:28;96336.47;;;0.85;88.21
60479;BME280;46321;48.398;11.754;2022-11-15T05:49:55;96327.22;;;0.81;88.02
60479;BME280;46321;48.398;11.754;2022-11-15T05:52:24;96339.06;;;0.85;87.88
60479;BME280;46321;48.398;11.754;2022-11-15T05:54:50;96323.44;;;0.85;87.49
60479;BME280;46321;48.398;11.754;2022-11-15T05:57:17;96328.28;;;0.78;86.88
60479;BME280;46321;48.398;11.754;2022-11-15T05:59:42;96317.28;;;0.75;87.02
60479;BME280;46321;48.398;11.754;2022-11-15T06:02:09;96320.03;;;0.73;86.91
60479;BME280;46321;48.398;11.754;2022-11-15T06:04:34;96316.81;;;0.70;86.72
60479;BME280;46321;48.398;11.754;2022-11-15T06:06:59;96320.38;;;0.68;86.81
60479;BME280;46321;48.398;11.754;2022-11-15T06:09:25;96314.09;;;0.71;86.66
60479;BME280;46321;48.398;11.754;2022-11-15T06:11:50;96312.19;;;0.73;86.58
60479;BME280;46321;48.398;11.754;2022-11-15T06:14:15;96311.25;;;0.74;86.37
60479;BME280;46321;48.398;11.754;2022-11-15T06:16:41;96316.22;;;0.77;86.45
60479;BME280;46321;48.398;11.754;2022-11-15T06:19:06;96314.94;;;0.72;86.27
60479;BME280;46321;48.398;11.754;2022-11-15T06:21:32;96309.22;;;0.66;86.05
60479;BME280;46321;48.398;11.754;2022-11-15T06:23:57;96306.63;;;0.66;86.78
60479;BME280;46321;48.398;11.754;2022-11-15T06:26:22;96312.69;;;0.67;86.54
60479;BME280;46321;48.398;11.754;2022-11-15T06:28:47;96320.94;;;0.72;86.62
60479;BME280;46321;48.398;11.754;2022-11-15T06:31:13;96316.81;;;0.70;86.49
60479;BME280;46321;48.398;11.754;2022-11-15T06:33:39;96325.81;;;0.77;86.48
60479;BME280;46321;48.398;11.754;2022-11-15T06:36:07;96323.44;;;0.85;86.38
60479;BME280;46321;48.398;11.754;2022-11-15T06:38:33;96326.53;;;0.90;86.37
60479;BME280;46321;48.398;11.754;2022-11-15T06:41:06;96324.16;;;0.99;86.18
60479;BME280;46321;48.398;11.754;2022-11-15T06:43:32;96315.50;;;1.10;86.33
60479;BME280;46321;48.398;11.754;2022-11-15T06:45:58;96315.63;;;1.20;86.96
60479;BME280;46321;48.398;11.754;2022-11-15T06:48:24;96316.06;;;1.36;87.71
60479;BME280;46321;48.398;11.754;2022-11-15T06:50:53;96310.91;;;1.58;87.61
60479;BME280;46321;48.398;11.754;2022-11-15T06:53:20;96310.84;;;1.81;86.68
60479;BME280;46321;48.398;11.754;2022-11-15T06:55:45;96302.47;;;1.99;85.85
60479;BME280;46321;48.398;11.754;2022-11-15T06:58:11;96306.06;;;2.19;84.74
60479;BME280;46321;48.398;11.754;2022-11-15T07:00:36;96302.22;;;2.45;84.53
60479;BME280;46321;48.398;11.754;2022-11-15T07:03:02;96305.00;;;2.74;83.89
60479;BME280;46321;48.398;11.754;2022-11-15T07:05:28;96297.38;;;3.03;82.92
60479;BME280;46321;48.398;11.754;2022-11-15T07:07:54;96302.72;;;3.32;81.83
60479;BME280;46321;48.398;11.754;2022-11-15T07:10:21;96300.56;;;3.67;80.95
60479;BME280;46321;48.398;11.754;2022-11-15T07:12:49;96301.94;;;4.01;80.15
60479;BME280;46321;48.398;11.754;2022-11-15T07:15:19;96303.44;;;4.34;78.62
60479;BME280;46321;48.398;11.754;2022-11-15T07:17:44;96297.53;;;4.80;77.54
60479;BME280;46321;48.398;11.754;2022-11-15T07:20:10;96296.16;;;5.14;76.99
60479;BME280;46321;48.398;11.754;2022-11-15T07:22:36;96299.38;;;5.54;75.32
60479;BME280;46321;48.398;11.754;2022-11-15T07:25:02;96299.88;;;5.86;73.35
60479;BME280;46321;48.398;11.754;2022-11-15T07:27:27;96300.75;;;6.32;71.62
60479;BME280;46321;48.398;11.754;2022-11-15T07:29:52;96290.03;;;6.78;69.83
60479;BME280;46321;48.398;11.754;2022-11-15T07:32:18;96292.19;;;7.18;68.02
60479;BME280;46321;48.398;11.754;2022-11-15T07:34:43;96289.84;;;7.50;66.73
60479;BME280;46321;48.398;11.754;2022-11-15T07:37:10;96284.94;;;7.80;65.44
60479;BME280;46321;48.398;11.754;2022-11-15T07:39:35;96293.06;;;8.29;63.76
60479;BME280;46321;48.398;11.754;2022-11-15T07:42:01;96282.13;;;8.74;63.27
60479;BME280;46321;48.398;11.754;2022-11-15T07:44:45;96276.78;;;9.07;60.81
60479;BME280;46321;48.398;11.754;2022-11-15T07:47:10;96279.53;;;9.54;60.92
60479;BME280;46321;48.398;11.754;2022-11-15T07:49:35;96285.91;;;9.92;59.39
60479;BME280;46321;48.398;11.754;2022-11-15T07:52:00;96283.63;;;10.27;58.40
60479;BME280;46321;48.398;11.754;2022-11-15T07:54:26;96293.13;;;10.60;57.62
60479;BME280;46321;48.398;11.754;2022-11-15T07:56:51;96283.56;;;11.05;55.34
60479;BME280;46321;48.398;11.754;2022-11-15T07:59:16;96281.94;;;11.56;56.04
60479;BME280;46321;48.398;11.754;2022-11-15T08:01:42;96277.81;;;11.90;52.86
60479;BME280;46321;48.398;11.754;2022-11-15T08:04:07;96280.47;;;12.34;53.66
60479;BME280;46321;48.398;11.754;2022-11-15T08:06:32;96282.59;;;12.68;51.05
60479;BME280;46321;48.398;11.754;2022-11-15T08:08:57;96282.25;;;13.20;49.97
60479;BME280;46321;48.398;11.754;2022-11-15T08:11:23;96283.22;;;13.05;49.40
60479;BME280;46321;48.398;11.754;2022-11-15T08:13:48;96282.56;;;13.46;49.54
60479;BME280;46321;48.398;11.754;2022-11-15T08:16:13;96285.22;;;14.02;46.97
60479;BME280;46321;48.398;11.754;2022-11-15T08:18:38;96282.38;;;14.24;47.36
60479;BME280;46321;48.398;11.754;2022-11-15T08:21:04;96279.69;;;14.71;46.49
60479;BME280;46321;48.398;11.754;2022-11-15T08:23:30;96261.22;;;14.90;44.73
60479;BME280;46321;48.398;11.754;2022-11-15T08:26:02;96261.19;;;15.10;44.52
60479;BME280;46321;48.398;11.754;2022-11-15T08:28:28;96250.56;;;14.97;44.75
60479;BME280;46321;48.398;11.754;2022-11-15T08:30:54;96256.47;;;15.13;44.79
60479;BME280;46321;48.398;11.754;2022-11-15T08:33:19;96247.44;;;15.60;44.57
60479;BME280;46321;48.398;11.754;2022-11-15T08:35:44;96246.75;;;16.10;43.17
60479;BME280;46321;48.398;11.754;2022-11-15T08:38:10;96247.75;;;16.86;42.24
60479;BME280;46321;48.398;11.754;2022-11-15T08:40:36;96241.41;;;17.25;40.02
60479;BME280;46321;48.398;11.754;2022-11-15T08:43:01;96240.84;;;17.16;39.87
60479;BME280;46321;48.398;11.754;2022-11-15T08:45:28;96240.38;;;17.57;38.65
60479;BME280;46321;48.398;11.754;2022-11-15T08:47:54;96226.38;;;17.85;38.85
60479;BME280;46321;48.398;11.754;2022-11-15T08:50:19;96221.25;;;17.84;38.62
60479;BME280;46321;48.398;11.754;2022-11-15T08:52:45;96213.97;;;17.60;38.72
60479;BME280;46321;48.398;11.754;2022-11-15T08:55:10;96207.72;;;18.10;38.52
60479;BME280;46321;48.398;11.754;2022-11-15T08:57:35;96204.72;;;18.18;38.12
60479;BME280;46321;48.398;11.754;2022-11-15T09:00:01;96204.31;;;18.02;39.09
60479;BME280;46321;48.398;11.754;2022-11-15T09:02:26;96201.59;;;18.21;37.78
60479;BME280;46321;48.398;11.754;2022-11-15T09:04:51;96207.38;;;18.78;37.45
60479;BME280;46321;48.398;11.754;2022-11-15T09:07:16;96203.13;;;19.18;36.79
60479;BME280;46321;48.398;11.754;2022-11-15T09:09:42;96202.97;;;19.37;36.58
60479;BME280;46321;48.398;11.754;2022-11-15T09:12:07;96196.06;;;19.88;36.14
60479;BME280;46321;48.398;11.754;2022-11-15T09:14:33;96196.59;;;20.19;35.18
60479;BME280;46321;48.398;11.754;2022-11-15T09:16:58;96198.19;;;20.72;34.82
60479;BME280;46321;48.398;11.754;2022-11-15T09:19:24;96187.41;;;21.12;34.03
60479;BME280;46321;48.398;11.754;2022-11-15T09:21:49;96186.34;;;21.63;34.04
60479;BME280;46321;48.398;11.754;2022-11-15T09:24:15;96174.44;;;21.59;32.68
60479;BME280;46321;48.398;11.754;2022-11-15T09:26:40;96173.97;;;22.28;32.09
60479;BME280;46321;48.398;11.754;2022-11-15T09:29:05;96173.88;;;23.04;30.72
60479;BME280;46321;48.398;11.754;2022-11-15T09:31:31;96175.28;;;23.28;30.11
60479;BME280;46321;48.398;11.754;2022-11-15T09:33:56;96179.19;;;23.74;29.75
60479;BME280;46321;48.398;11.754;2022-11-15T09:36:21;96179.22;;;24.36;28.92
60479;BME280;46321;48.398;11.754;2022-11-15T09:38:47;96173.72;;;24.78;28.35
60479;BME280;46321;48.398;11.754;2022-11-15T09:48:55;96158.44;;;22.94;29.12
60479;BME280;46321;48.398;11.754;2022-11-15T09:56:24;96138.13;;;23.93;28.36
60479;BME280;46321;48.398;11.754;2022-11-15T10:02:01;96125.44;;;24.35;27.79
60479;BME280;46321;48.398;11.754;2022-11-15T10:04:33;96131.19;;;24.95;27.88
60479;BME280;46321;48.398;11.754;2022-11-15T10:07:14;96126.31;;;25.02;27.18
60479;BME280;46321;48.398;11.754;2022-11-15T10:09:47;96134.13;;;25.09;26.90
60479;BME280;46321;48.398;11.754;2022-11-15T10:12:15;96123.28;;;25.54;26.59
60479;BME280;46321;48.398;11.754;2022-11-15T10:14:41;96115.13;;;25.14;26.19
60479;BME280;46321;48.398;11.754;2022-11-15T10:22:50;96090.06;;;23.63;28.65
60479;BME280;46321;48.398;11.754;2022-11-15T10:27:53;96088.56;;;25.61;26.61
60479;BME280;46321;48.398;11.754;2022-11-15T10:30:19;96078.66;;;24.34;28.21
60479;BME280;46321;48.398;11.754;2022-11-15T10:32:46;96078.25;;;24.62;27.75
60479;BME280;46321;48.398;11.754;2022-11-15T10:35:26;96068.56;;;25.17;26.94
60479;BME280;46321;48.398;11.754;2022-11-15T10:38:04;96062.03;;;25.23;26.89
60479;BME280;46321;48.398;11.754;2022-11-15T10:40:30;96056.81;;;26.02;24.38
60479;BME280;46321;48.398;11.754;2022-11-15T10:43:13;96051.56;;;26.41;24.15
60479;BME280;46321;48.398;11.754;2022-11-15T10:45:39;96047.50;;;25.84;24.53
60479;BME280;46321;48.398;11.754;2022-11-15T10:50:41;96044.00;;;25.03;26.11
60479;BME280;46321;48.398;11.754;2022-11-15T10:53:31;96038.66;;;24.98;26.68
60479;BME280;46321;48.398;11.754;2022-11-15T10:56:07;96042.25;;;25.93;26.03
60479;BME280;46321;48.398;11.754;2022-11-15T11:03:36;96032.78;;;24.69;26.86
60479;BME280;46321;48.398;11.754;2022-11-15T11:06:12;96033.91;;;25.14;26.22
60479;BME280;46321;48.398;11.754;2022-11-15T11:08:38;96024.91;;;24.01;27.31
60479;BME280;46321;48.398;11.754;2022-11-15T11:11:04;96017.00;;;24.87;26.38
60479;BME280;46321;48.398;11.754;2022-11-15T11:13:38;96019.59;;;25.13;27.20
60479;BME280;46321;48.398;11.754;2022-11-15T11:21:18;95998.47;;;28.27;23.27
60479;BME280;46321;48.398;11.754;2022-11-15T11:24:00;95995.94;;;28.16;23.11
60479;BME280;46321;48.398;11.754;2022-11-15T11:29:24;95991.28;;;29.56;21.53
60479;BME280;46321;48.398;11.754;2022-11-15T11:32:13;95986.59;;;28.22;22.16
60479;BME280;46321;48.398;11.754;2022-11-15T11:38:15;95990.44;;;21.10;32.38
60479;BME280;46321;48.398;11.754;2022-11-15T11:49:12;95983.94;;;18.02;39.03
60479;BME280;46321;48.398;11.754;2022-11-15T11:51:54;95987.78;;;17.94;39.54
60479;BME280;46321;48.398;11.754;2022-11-15T11:54:41;95975.81;;;17.84;39.39
60479;BME280;46321;48.398;11.754;2022-11-15T11:57:18;95978.53;;;16.93;41.26
60479;BME280;46321;48.398;11.754;2022-11-15T11:59:51;95982.50;;;15.85;44.03
60479;BME280;46321;48.398;11.754;2022-11-15T12:02:27;95981.41;;;15.48;44.81
60479;BME280;46321;48.398;11.754;2022-11-15T12:05:25;95974.94;;;15.82;45.55
60479;BME280;46321;48.398;11.754;2022-11-15T12:07:43;95963.56;;;16.12;44.82
60479;BME280;46321;48.398;11.754;2022-11-15T12:10:28;95963.81;;;15.85;45.09
60479;BME280;46321;48.398;11.754;2022-11-15T12:12:58;95965.38;;;15.04;47.03
60479;BME280;46321;48.398;11.754;2022-11-15T12:15:31;95950.53;;;14.82;48.15
60479;BME280;46321;48.398;11.754;2022-11-15T12:18:00;95948.78;;;15.02;47.49
60479;BME280;46321;48.398;11.754;2022-11-15T12:20:29;95943.41;;;15.08;47.64
60479;BME280;46321;48.398;11.754;2022-11-15T12:22:59;95937.44;;;15.57;47.38
60479;BME280;46321;48.398;11.754;2022-11-15T12:25:52;95929.03;;;15.35;47.38
60479;BME280;46321;48.398;11.754;2022-11-15T12:28:38;95923.28;;;15.13;48.32
60479;BME280;46321;48.398;11.754;2022-11-15T12:31:21;95924.03;;;15.45;48.69
60479;BME280;46321;48.398;11.754;2022-11-15T12:33:49;95924.69;;;15.60;47.61
60479;BME280;46321;48.398;11.754;2022-11-15T12:39:05;95914.38;;;15.44;46.20
60479;BME280;46321;48.398;11.754;2022-11-15T12:41:39;95910.06;;;15.25;46.57
60479;BME280;46321;48.398;11.754;2022-11-15T12:44:11;95897.25;;;15.33;46.61
60479;BME280;46321;48.398;11.754;2022-11-15T12:52:03;95910.81;;;14.81;46.98
60479;BME280;46321;48.398;11.754;2022-11-15T13:02:22;95901.13;;;14.54;47.29
60479;BME280;46321;48.398;11.754;2022-11-15T13:04:49;95902.41;;;14.51;47.89
60479;BME280;46321;48.398;11.754;2022-11-15T13:22:44;95892.31;;;14.21;49.18
60479;BME280;46321;48.398;11.754;2022-11-15T13:28:00;95900.16;;;14.09;49.50
60479;BME280;46321;48.398;11.754;2022-11-15T13:30:27;95895.88;;;14.08;49.66
60479;BME280;46321;48.398;11.754;2022-11-15T13:32:54;95894.47;;;13.99;49.69
60479;BME280;46321;48.398;11.754;2022-11-15T13:35:23;95891.72;;;13.80;50.38
60479;BME280;46321;48.398;11.754;2022-11-15T13:37:49;95887.16;;;13.87;50.11
60479;BME280;46321;48.398;11.754;2022-11-15T13:40:20;95884.38;;;13.68;49.94
60479;BME280;46321;48.398;11.754;2022-11-15T13:42:46;95880.28;;;13.66;50.32
60479;BME280;46321;48.398;11.754;2022-11-15T13:45:15;95874.81;;;13.40;51.34
60479;BME280;46321;48.398;11.754;2022-11-15T13:47:41;95869.13;;;13.30;51.44
60479;BME280;46321;48.398;11.754;2022-11-15T13:50:11;95872.31;;;13.52;51.40
60479;BME280;46321;48.398;11.754;2022-11-15T13:52:38;95872.97;;;13.34;51.50
60479;BME280;46321;48.398;11.754;2022-11-15T13:55:22;95867.28;;;13.23;51.99
60479;BME280;46321;48.398;11.754;2022-11-15T14:00:33;95866.47;;;13.16;52.25
60479;BME280;46321;48.398;11.754;2022-11-15T14:03:19;95865.84;;;13.27;52.27
60479;BME280;46321;48.398;11.754;2022-11-15T14:06:11;95873.66;;;12.95;52.33
60479;BME280;46321;48.398;11.754;2022-11-15T14:08:38;95868.75;;;12.99;52.19
60479;BME280;46321;48.398;11.754;2022-11-15T14:11:17;95865.28;;;12.85;52.24
60479;BME280;46321;48.398;11.754;2022-11-15T14:16:35;95872.25;;;12.92;51.90
60479;BME280;46321;48.398;11.754;2022-11-15T14:19:01;95872.03;;;12.94;51.74
60479;BME280;46321;48.398;11.754;2022-11-15T14:21:26;95864.88;;;12.81;51.74
60479;BME280;46321;48.398;11.754;2022-11-15T14:23:51;95868.16;;;12.69;52.48
60479;BME280;46321;48.398;11.754;2022-11-15T14:26:29;95871.19;;;12.66;52.24
60479;BME280;46321;48.398;11.754;2022-11-15T14:28:55;95865.28;;;12.78;52.25
60479;BME280;46321;48.398;11.754;2022-11-15T14:31:21;95862.03;;;12.82;52.09
60479;BME280;46321;48.398;11.754;2022-11-15T14:33:47;95864.69;;;12.69;52.29
60479;BME280;46321;48.398;11.754;2022-11-15T14:36:17;95860.59;;;12.66;52.73
60479;BME280;46321;48.398;11.754;2022-11-15T14:38:43;95861.41;;;12.67;52.67
60479;BME280;46321;48.398;11.754;2022-11-15T14:41:27;95863.84;;;12.62;52.47
60479;BME280;46321;48.398;11.754;2022-11-15T14:43:53;95866.94;;;12.58;52.83
60479;BME280;46321;48.398;11.754;2022-11-15T14:46:18;95863.22;;;12.59;53.34
60479;BME280;46321;48.398;11.754;2022-11-15T14:48:44;95856.72;;;12.62;52.78
60479;BME280;46321;48.398;11.754;2022-11-15T14:51:14;95854.25;;;12.47;53.15
60479;BME280;46321;48.398;11.754;2022-11-15T14:53:41;95847.28;;;12.46;53.54
60479;BME280;46321;48.398;11.754;2022-11-15T14:56:07;95845.47;;;12.40;53.83